Time;durP1;ratioP1;P1;durP2;ratioP2;P2;SDS_P1;SDS_P2;PMS_P1;PMS_P2;Temp;Humidity;BMP_temperature;BMP_pressure;BME280_temperature;BME280_humidity;BME280_pressure;Samples;Min_cycle;Max_cycle;Signal;HPM_P1;HPM_P2
2023/09/22 00:01:39;;;;;;;13.90;4.20;;;;;;;-128.00;-1.00;-1.00;100993;316;1002827;-30
2023/09/22 00:04:05;;;;;;;11.50;4.00;;;;;;;-128.00;-1.00;-1.00;100782;318;1003688;-30
2023/09/22 00:06:31;;;;;;;8.60;3.80;;;;;;;-128.00;-1.00;-1.00;100809;316;1002693;-31
2023/09/22 00:08:57;;;;;;;20.00;3.00;;;;;;;-128.00;-1.00;-1.00;101007;316;1002999;-34
2023/09/22 00:11:22;;;;;;;7.60;3.70;;;;;;;-128.00;-1.00;-1.00;101001;316;1003184;-30
2023/09/22 00:13:48;;;;;;;5.40;3.90;;;;;;;-128.00;-1.00;-1.00;100677;317;1003519;-34
2023/09/22 00:16:14;;;;;;;4.80;3.60;;;;;;;-128.00;-1.00;-1.00;100817;316;1003456;-31
2023/09/22 00:18:39;;;;;;;7.30;4.70;;;;;;;-128.00;-1.00;-1.00;100976;316;1003200;-35
2023/09/22 00:21:06;;;;;;;6.30;2.10;;;;;;;-128.00;-1.00;-1.00;100692;316;1006738;-33
2023/09/22 00:23:32;;;;;;;7.30;4.10;;;;;;;-128.00;-1.00;-1.00;100787;316;1003290;-34
2023/09/22 00:25:57;;;;;;;7.50;3.90;;;;;;;-128.00;-1.00;-1.00;100968;316;1003691;-31
2023/09/22 00:28:23;;;;;;;5.90;3.80;;;;;;;-128.00;-1.00;-1.00;100965;316;1004137;-31
2023/09/22 00:30:48;;;;;;;3.50;3.10;;;;;;;-128.00;-1.00;-1.00;100801;318;1003085;-34
2023/09/22 00:33:14;;;;;;;6.40;2.90;;;;;;;-128.00;-1.00;-1.00;100902;317;1004059;-30
2023/09/22 00:35:40;;;;;;;5.30;3.10;;;;;;;-128.00;-1.00;-1.00;101009;316;1003177;-31
2023/09/22 01:17:47;;;;;;;8.60;3.30;;;;;;;17.92;77.59;98118.02;104315;316;590216;-34
2023/09/22 01:20:13;;;;;;;4.10;2.60;;;;;;;-14.50;73.36;102248.36;103951;317;581225;-34
2023/09/22 01:22:38;;;;;;;5.30;2.80;;;;;;;-128.00;-1.00;-1.00;100863;316;1002833;-30
2023/09/22 01:25:04;;;;;;;;;;;;;;;-43.72;65.93;77893.71;103346;318;1002119;-34
2023/09/22 01:27:30;;;;;;;6.80;4.70;;;;;;;-128.00;-1.00;-1.00;101034;316;1003948;-32
2023/09/22 01:29:56;;;;;;;5.20;2.80;;;;;;;-128.00;-1.00;-1.00;101056;316;1002588;-34
2023/09/22 01:32:22;;;;;;;4.40;3.70;;;;;;;-128.00;-1.00;-1.00;101019;317;1002728;-32
2023/09/22 01:34:48;;;;;;;4.80;3.10;;;;;;;-128.00;-1.00;-1.00;101037;317;1003156;-34
2023/09/22 01:37:14;;;;;;;7.30;3.10;;;;;;;-128.00;-1.00;-1.00;101121;316;1004848;-31
2023/09/22 01:39:40;;;;;;;6.30;4.90;;;;;;;-128.00;-1.00;-1.00;101042;316;1002854;-34
2023/09/22 01:42:08;;;;;;;5.80;4.60;;;;;;;-128.00;-1.00;-1.00;101016;317;1004034;-34
2023/09/22 01:44:33;;;;;;;6.90;4.30;;;;;;;-128.00;-1.00;-1.00;101013;316;1003612;-33
2023/09/22 01:46:59;;;;;;;4.20;3.00;;;;;;;-128.00;-1.00;-1.00;101033;316;1003015;-29
2023/09/22 01:49:25;;;;;;;5.90;3.00;;;;;;;-128.00;-1.00;-1.00;101089;316;1002658;-31
2023/09/22 01:51:51;;;;;;;3.60;3.20;;;;;;;-128.00;-1.00;-1.00;101032;316;1002683;-30
2023/09/22 01:54:16;;;;;;;7.20;4.40;;;;;;;-128.00;-1.00;-1.00;101058;316;1003058;-32
2023/09/22 01:56:42;;;;;;;17.90;2.40;;;;;;;-128.00;-1.00;-1.00;101039;316;1002753;-32
2023/09/22 01:59:08;;;;;;;5.10;4.00;;;;;;;-128.00;-1.00;-1.00;101029;316;1004462;-36
2023/09/22 02:01:33;;;;;;;6.00;4.20;;;;;;;-128.00;-1.00;-1.00;101076;316;1004016;-34
2023/09/22 02:03:59;;;;;;;6.30;3.50;;;;;;;-128.00;-1.00;-1.00;101067;316;1002962;-35
2023/09/22 02:06:24;;;;;;;6.20;3.50;;;;;;;-128.00;-1.00;-1.00;101039;316;1003189;-29
2023/09/22 02:08:50;;;;;;;1.90;1.50;;;;;;;-128.00;-1.00;-1.00;101055;316;1003122;-32
2023/09/22 02:11:16;;;;;;;1.10;1.00;;;;;;;-128.00;-1.00;-1.00;101052;316;1002853;-32
2023/09/22 02:13:42;;;;;;;3.10;2.10;;;;;;;-128.00;-1.00;-1.00;101042;317;1004259;-32
2023/09/22 02:16:08;;;;;;;7.80;3.80;;;;;;;-128.00;-1.00;-1.00;101054;316;1002875;-34
2023/09/22 02:18:35;;;;;;;3.20;2.80;;;;;;;-128.00;-1.00;-1.00;100965;317;1002940;-30
2023/09/22 02:21:01;;;;;;;11.20;3.00;;;;;;;-128.00;-1.00;-1.00;101058;316;1003634;-31
2023/09/22 02:23:26;;;;;;;5.10;3.80;;;;;;;-128.00;-1.00;-1.00;101058;317;1004367;-30
2023/09/22 02:25:52;;;;;;;5.20;3.40;;;;;;;-128.00;-1.00;-1.00;101007;316;1004174;-30
2023/09/22 02:28:19;;;;;;;6.40;4.60;;;;;;;-128.00;-1.00;-1.00;100948;317;1002783;-30
2023/09/22 02:30:45;;;;;;;13.10;4.90;;;;;;;-128.00;-1.00;-1.00;101044;316;1003236;-30
2023/09/22 02:33:10;;;;;;;8.70;3.60;;;;;;;-128.00;-1.00;-1.00;101057;316;1002917;-30
2023/09/22 02:35:39;;;;;;;26.10;3.50;;;;;;;-128.00;-1.00;-1.00;100776;317;1002888;-34
2023/09/22 02:38:05;;;;;;;10.60;4.60;;;;;;;-128.00;-1.00;-1.00;101041;316;1002912;-30
2023/09/22 02:40:31;;;;;;;5.10;4.40;;;;;;;-128.00;-1.00;-1.00;100935;317;1002140;-30
2023/09/22 02:42:56;;;;;;;5.90;5.00;;;;;;;-128.00;-1.00;-1.00;100872;318;1003705;-36
2023/09/22 02:45:22;;;;;;;7.10;3.40;;;;;;;-128.00;-1.00;-1.00;101034;316;1002754;-30
2023/09/22 02:47:48;;;;;;;4.50;2.20;;;;;;;-128.00;-1.00;-1.00;101020;316;1002721;-30
2023/09/22 02:50:18;;;;;;;11.30;4.50;;;;;;;-128.00;-1.00;-1.00;101060;317;1002696;-36
2023/09/22 02:52:44;;;;;;;4.40;3.40;;;;;;;-128.00;-1.00;-1.00;101067;316;1002446;-30
2023/09/22 02:55:10;;;;;;;8.40;4.00;;;;;;;-128.00;-1.00;-1.00;101000;317;1005088;-32
2023/09/22 02:57:36;;;;;;;3.00;1.30;;;;;;;-128.00;-1.00;-1.00;101125;317;1003484;-30
2023/09/22 03:02:41;;;;;;;5.50;4.50;;;;;;;-128.00;-1.00;-1.00;101066;317;1002752;-32
2023/09/22 03:05:08;;;;;;;6.60;3.80;;;;;;;-128.00;-1.00;-1.00;101022;316;1004135;-30
2023/09/22 03:07:34;;;;;;;6.00;3.50;;;;;;;-128.00;-1.00;-1.00;101039;317;1002235;-34
2023/09/22 03:09:59;;;;;;;7.70;3.70;;;;;;;-128.00;-1.00;-1.00;101062;316;1003979;-31
2023/09/22 03:12:25;;;;;;;7.20;5.20;;;;;;;-128.00;-1.00;-1.00;101052;317;1002866;-30
2023/09/22 03:14:51;;;;;;;5.90;3.50;;;;;;;-128.00;-1.00;-1.00;101122;316;1002357;-30
2023/09/22 03:17:16;;;;;;;11.90;5.10;;;;;;;-128.00;-1.00;-1.00;101067;316;1002597;-30
2023/09/22 03:19:42;;;;;;;4.90;4.00;;;;;;;-128.00;-1.00;-1.00;101044;316;1003663;-36
2023/09/22 03:22:07;;;;;;;4.90;4.00;;;;;;;-128.00;-1.00;-1.00;101020;317;1003253;-36
2023/09/22 03:24:34;;;;;;;;;;;;;;;-128.00;-1.00;-1.00;101040;316;1002441;-34
2023/09/22 03:27:00;;;;;;;5.00;3.30;;;;;;;-128.00;-1.00;-1.00;101058;317;1003577;-31
2023/09/22 03:29:25;;;;;;;6.70;3.30;;;;;;;-128.00;-1.00;-1.00;101020;316;1003549;-30
2023/09/22 03:31:51;;;;;;;14.30;6.10;;;;;;;-128.00;-1.00;-1.00;101058;316;1003225;-34
2023/09/22 03:34:17;;;;;;;8.10;5.50;;;;;;;-128.00;-1.00;-1.00;101073;316;1002687;-36
2023/09/22 03:36:43;;;;;;;5.50;3.50;;;;;;;-128.00;-1.00;-1.00;101055;316;1002779;-35
2023/09/22 03:39:12;;;;;;;6.50;3.30;;;;;;;-128.00;-1.00;-1.00;101030;316;1004593;-30
2023/09/22 03:41:40;;;;;;;4.00;3.60;;;;;;;-128.00;-1.00;-1.00;101103;316;1003948;-30
2023/09/22 03:44:07;;;;;;;8.80;5.30;;;;;;;-128.00;-1.00;-1.00;101088;317;1003011;-30
2023/09/22 03:46:32;;;;;;;3.60;3.10;;;;;;;-128.00;-1.00;-1.00;101044;317;1002659;-34
2023/09/22 03:48:58;;;;;;;9.10;5.00;;;;;;;-128.00;-1.00;-1.00;101061;316;1002950;-33
2023/09/22 03:51:24;;;;;;;14.90;5.00;;;;;;;-128.00;-1.00;-1.00;101023;316;1003727;-30
2023/09/22 03:53:49;;;;;;;7.70;4.20;;;;;;;-128.00;-1.00;-1.00;101052;317;1003001;-36
2023/09/22 03:56:15;;;;;;;11.40;3.70;;;;;;;-128.00;-1.00;-1.00;100988;316;1003908;-30
2023/09/22 03:58:42;;;;;;;12.40;5.40;;;;;;;-128.00;-1.00;-1.00;100896;317;1003385;-30
2023/09/22 04:01:11;;;;;;;6.60;4.20;;;;;;;-128.00;-1.00;-1.00;100837;317;1004344;-34
2023/09/22 04:03:37;;;;;;;11.20;4.80;;;;;;;-128.00;-1.00;-1.00;101041;316;1003130;-35
2023/09/22 04:06:04;;;;;;;8.80;4.00;;;;;;;-128.00;-1.00;-1.00;100855;317;1003615;-30
2023/09/22 04:08:30;;;;;;;8.60;4.40;;;;;;;-128.00;-1.00;-1.00;100948;317;1003753;-35
2023/09/22 04:10:57;;;;;;;12.10;5.10;;;;;;;-128.00;-1.00;-1.00;101014;316;1003521;-30
2023/09/22 04:13:24;;;;;;;8.90;3.90;;;;;;;-128.00;-1.00;-1.00;100765;318;1002483;-30
2023/09/22 04:16:02;;;;;;;5.70;4.40;;;;;;;-128.00;-1.00;-1.00;101014;317;1002967;-34
2023/09/22 04:18:29;;;;;;;11.10;4.40;;;;;;;-128.00;-1.00;-1.00;100958;316;1002881;-30
2023/09/22 04:20:56;;;;;;;5.40;1.20;;;;;;;-128.00;-1.00;-1.00;100738;318;1002756;-30
2023/09/22 04:23:22;;;;;;;12.70;6.40;;;;;;;-128.00;-1.00;-1.00;100793;316;1003542;-29
2023/09/22 04:25:48;;;;;;;10.80;3.70;;;;;;;-128.00;-1.00;-1.00;101024;317;1004339;-30
2023/09/22 04:28:17;;;;;;;9.70;5.00;;;;;;;-128.00;-1.00;-1.00;101002;317;1004110;-34
2023/09/22 04:30:43;;;;;;;16.80;4.00;;;;;;;-128.00;-1.00;-1.00;100978;318;1002980;-34
2023/09/22 04:33:10;;;;;;;3.30;3.00;;;;;;;-128.00;-1.00;-1.00;100862;317;1003346;-30
2023/09/22 04:35:36;;;;;;;10.00;4.70;;;;;;;-128.00;-1.00;-1.00;100829;318;1002869;-35
2023/09/22 04:38:04;;;;;;;8.20;4.60;;;;;;;-128.00;-1.00;-1.00;101069;316;1003580;-30
2023/09/22 04:40:36;;;;;;;10.30;4.10;;;;;;;-128.00;-1.00;-1.00;101039;316;1003037;-30
2023/09/22 04:43:07;;;;;;;20.30;4.60;;;;;;;-128.00;-1.00;-1.00;101031;316;1002753;-30
2023/09/22 04:45:40;;;;;;;7.90;3.40;;;;;;;-128.00;-1.00;-1.00;100873;316;1003250;-36
2023/09/22 04:48:09;;;;;;;15.20;5.00;;;;;;;-128.00;-1.00;-1.00;101045;317;1003316;-30
2023/09/22 04:50:35;;;;;;;13.00;4.30;;;;;;;-128.00;-1.00;-1.00;101063;316;1003624;-35
2023/09/22 04:53:01;;;;;;;13.80;5.90;;;;;;;-128.00;-1.00;-1.00;100967;316;1003528;-36
2023/09/22 04:55:29;;;;;;;9.20;4.80;;;;;;;-128.00;-1.00;-1.00;100795;318;1003761;-31
2023/09/22 04:57:56;;;;;;;7.30;5.60;;;;;;;-128.00;-1.00;-1.00;100997;316;1003152;-35
2023/09/22 05:00:23;;;;;;;7.60;4.20;;;;;;;-128.00;-1.00;-1.00;101036;316;1002680;-35
2023/09/22 05:02:51;;;;;;;5.80;3.90;;;;;;;-128.00;-1.00;-1.00;101047;316;1003020;-36
2023/09/22 05:05:19;;;;;;;4.20;3.80;;;;;;;-128.00;-1.00;-1.00;101023;316;1003303;-34
2023/09/22 05:07:45;;;;;;;6.20;4.90;;;;;;;-128.00;-1.00;-1.00;100961;316;1003328;-29
2023/09/22 05:10:11;;;;;;;;;;;;;;;-128.00;-1.00;-1.00;101017;316;1003025;-34
2023/09/22 05:12:37;;;;;;;20.80;5.00;;;;;;;-128.00;-1.00;-1.00;101027;316;1003353;-31
2023/09/22 05:15:04;;;;;;;10.20;3.50;;;;;;;-128.00;-1.00;-1.00;101032;317;1004125;-30
2023/09/22 05:17:29;;;;;;;5.30;3.60;;;;;;;-128.00;-1.00;-1.00;100999;316;1003153;-30
2023/09/22 05:19:55;;;;;;;6.40;4.20;;;;;;;-128.00;-1.00;-1.00;100971;316;1003701;-30
2023/09/22 05:22:20;;;;;;;3.20;2.50;;;;;;;-128.00;-1.00;-1.00;101000;316;1003357;-34
2023/09/22 05:24:47;;;;;;;11.10;6.10;;;;;;;-128.00;-1.00;-1.00;100976;316;1003056;-30
2023/09/22 05:27:14;;;;;;;1.50;1.30;;;;;;;-128.00;-1.00;-1.00;100809;317;1003840;-31
2023/09/22 05:29:41;;;;;;;10.60;3.90;;;;;;;-128.00;-1.00;-1.00;101036;316;1003734;-37
2023/09/22 05:32:08;;;;;;;7.50;5.10;;;;;;;-128.00;-1.00;-1.00;100993;317;1003196;-30
2023/09/22 05:34:34;;;;;;;6.00;4.10;;;;;;;-128.00;-1.00;-1.00;100871;317;1004164;-30
2023/09/22 05:37:03;;;;;;;5.30;3.40;;;;;;;-128.00;-1.00;-1.00;100881;318;1003053;-36
2023/09/22 05:39:29;;;;;;;8.30;5.30;;;;;;;-128.00;-1.00;-1.00;101074;316;1003039;-31
2023/09/22 05:41:54;;;;;;;1.80;1.00;;;;;;;-128.00;-1.00;-1.00;100957;316;1003022;-32
2023/09/22 05:44:20;;;;;;;5.70;4.60;;;;;;;-128.00;-1.00;-1.00;100883;317;1002945;-32
2023/09/22 05:46:46;;;;;;;6.10;3.80;;;;;;;-128.00;-1.00;-1.00;101012;317;1003621;-35
2023/09/22 05:49:14;;;;;;;5.50;3.20;;;;;;;-128.00;-1.00;-1.00;100842;317;1003846;-35
2023/09/22 05:51:40;;;;;;;9.60;4.40;;;;;;;-128.00;-1.00;-1.00;100949;316;1003431;-30
2023/09/22 05:54:07;;;;;;;18.30;4.40;;;;;;;-128.00;-1.00;-1.00;100985;316;1005195;-32
2023/09/22 05:56:33;;;;;;;11.70;3.20;;;;;;;-128.00;-1.00;-1.00;100728;317;1002806;-35
2023/09/22 05:58:59;;;;;;;4.10;2.40;;;;;;;-128.00;-1.00;-1.00;101040;317;1003302;-30
2023/09/22 06:01:25;;;;;;;7.10;2.80;;;;;;;-128.00;-1.00;-1.00;100983;316;1004135;-30
2023/09/22 06:03:51;;;;;;;3.00;2.50;;;;;;;-128.00;-1.00;-1.00;101010;317;1004092;-35
2023/09/22 06:06:17;;;;;;;7.60;4.50;;;;;;;-128.00;-1.00;-1.00;101038;317;1003854;-31
2023/09/22 06:08:45;;;;;;;4.20;3.50;;;;;;;-128.00;-1.00;-1.00;100982;316;1002670;-34
2023/09/22 06:11:11;;;;;;;6.70;3.60;;;;;;;-128.00;-1.00;-1.00;101053;317;1002644;-30
2023/09/22 06:13:38;;;;;;;5.10;4.50;;;;;;;-128.00;-1.00;-1.00;100937;317;1003350;-37
2023/09/22 06:16:04;;;;;;;5.20;3.40;;;;;;;-128.00;-1.00;-1.00;100971;317;1002892;-35
2023/09/22 06:18:31;;;;;;;8.70;3.10;;;;;;;-128.00;-1.00;-1.00;100990;316;1003258;-31
2023/09/22 06:20:57;;;;;;;4.70;3.30;;;;;;;-128.00;-1.00;-1.00;101089;316;1003965;-34
2023/09/22 06:23:26;;;;;;;4.60;2.30;;;;;;;-128.00;-1.00;-1.00;100984;316;1003109;-35
2023/09/22 06:25:54;;;;;;;6.10;2.30;;;;;;;-128.00;-1.00;-1.00;100950;316;1003747;-33
2023/09/22 06:28:20;;;;;;;3.60;2.90;;;;;;;-128.00;-1.00;-1.00;101025;316;1004707;-35
2023/09/22 06:30:47;;;;;;;2.90;1.90;;;;;;;-128.00;-1.00;-1.00;100998;317;1005014;-34
2023/09/22 06:33:15;;;;;;;6.00;2.60;;;;;;;-128.00;-1.00;-1.00;101020;320;1002984;-36
2023/09/22 06:35:40;;;;;;;7.00;2.00;;;;;;;-128.00;-1.00;-1.00;101023;316;1003493;-37
2023/09/22 06:38:06;;;;;;;16.10;2.80;;;;;;;-128.00;-1.00;-1.00;100991;316;1003079;-35
2023/09/22 06:40:36;;;;;;;3.90;1.70;;;;;;;-128.00;-1.00;-1.00;101055;316;1003657;-31
2023/09/22 06:43:01;;;;;;;4.40;2.10;;;;;;;-128.00;-1.00;-1.00;101017;316;1003372;-35
2023/09/22 06:45:27;;;;;;;17.70;1.80;;;;;;;-128.00;-1.00;-1.00;95086;316;2859004;-31
2023/09/22 06:47:55;;;;;;;8.30;2.40;;;;;;;-128.00;-1.00;-1.00;72475;317;4503389;-35
2023/09/22 06:50:24;;;;;;;3.60;1.80;;;;;;;-128.00;-1.00;-1.00;62827;316;7503976;-35
2023/09/22 06:52:49;;;;;;;4.20;2.10;;;;;;;-128.00;-1.00;-1.00;26908;316;7504785;-36
2023/09/22 06:55:15;;;;;;;21.70;3.00;;;;;;;-128.00;-1.00;-1.00;35176;321;7506613;-36
2023/09/22 06:57:41;;;;;;;6.00;2.20;;;;;;;-128.00;-1.00;-1.00;39120;317;7504440;-30
2023/09/22 07:00:15;;;;;;;4.40;2.90;;;;;;;-128.00;-1.00;-1.00;100827;317;1003450;-35
2023/09/22 07:02:42;;;;;;;5.70;2.70;;;;;;;-128.00;-1.00;-1.00;101014;316;1003283;-30
2023/09/22 07:05:09;;;;;;;2.30;1.80;;;;;;;-128.00;-1.00;-1.00;101087;316;1004659;-36
2023/09/22 07:07:37;;;;;;;2.80;1.50;;;;;;;-128.00;-1.00;-1.00;101009;316;1004009;-33
2023/09/22 07:10:07;;;;;;;3.10;1.80;;;;;;;-128.00;-1.00;-1.00;97980;316;2067756;-31
2023/09/22 07:12:36;;;;;;;3.20;2.10;;;;;;;-128.00;-1.00;-1.00;78783;317;5695532;-35
2023/09/22 07:15:04;;;;;;;4.80;2.40;;;;;;;-128.00;-1.00;-1.00;31543;320;7505298;-32
2023/09/22 07:17:31;;;;;;;2.70;2.00;;;;;;;-128.00;-1.00;-1.00;19057;317;7505062;-36
2023/09/22 07:19:58;;;;;;;6.80;2.20;;;;;;;-128.00;-1.00;-1.00;19063;322;7506395;-32
2023/09/22 07:22:23;;;;;;;2.80;2.00;;;;;;;-128.00;-1.00;-1.00;19078;321;7505093;-32
2023/09/22 07:24:52;;;;;;;2.90;2.20;;;;;;;-128.00;-1.00;-1.00;19058;317;7504390;-32
2023/09/22 07:27:18;;;;;;;6.70;1.50;;;;;;;-128.00;-1.00;-1.00;19068;317;7504911;-36
2023/09/22 07:29:44;;;;;;;3.60;2.50;;;;;;;-128.00;-1.00;-1.00;19075;317;7506492;-31
2023/09/22 07:32:10;;;;;;;5.30;2.30;;;;;;;-128.00;-1.00;-1.00;18999;319;7505159;-36
2023/09/22 07:34:36;;;;;;;13.70;2.50;;;;;;;-128.00;-1.00;-1.00;19076;320;7504666;-35
2023/09/22 07:37:01;;;;;;;5.70;2.50;;;;;;;-128.00;-1.00;-1.00;19058;322;7504781;-36
2023/09/22 07:39:27;;;;;;;4.30;2.10;;;;;;;-128.00;-1.00;-1.00;19001;316;7504575;-36
2023/09/22 07:41:53;;;;;;;6.60;2.40;;;;;;;-128.00;-1.00;-1.00;19065;317;7505241;-32
2023/09/22 07:44:21;;;;;;;4.10;2.10;;;;;;;-128.00;-1.00;-1.00;19076;317;7504905;-31
2023/09/22 07:46:48;;;;;;;2.10;1.20;;;;;;;-128.00;-1.00;-1.00;19054;317;7505251;-30
2023/09/22 07:49:15;;;;;;;4.10;1.80;;;;;;;-128.00;-1.00;-1.00;19053;322;7504977;-32
2023/09/22 07:51:41;;;;;;;11.80;1.40;;;;;;;-128.00;-1.00;-1.00;70393;316;7504468;-31
2023/09/22 07:54:09;;;;;;;6.00;1.80;;;;;;;-128.00;-1.00;-1.00;19008;318;7505209;-32
2023/09/22 07:56:35;;;;;;;9.10;1.60;;;;;;;-128.00;-1.00;-1.00;19064;317;7505182;-30
2023/09/22 07:59:03;;;;;;;3.70;1.50;;;;;;;-128.00;-1.00;-1.00;19478;317;7504310;-35
2023/09/22 08:01:29;;;;;;;5.40;1.60;;;;;;;-128.00;-1.00;-1.00;19054;322;7505976;-35
2023/09/22 08:03:54;;;;;;;3.60;1.90;;;;;;;-128.00;-1.00;-1.00;89721;316;7504711;-34
2023/09/22 08:06:20;;;;;;;4.90;1.80;;;;;;;-128.00;-1.00;-1.00;100801;316;1002919;-33
2023/09/22 08:08:49;;;;;;;3.00;1.20;;;;;;;-128.00;-1.00;-1.00;100830;317;1004725;-34
2023/09/22 08:11:18;;;;;;;2.00;1.10;;;;;;;-128.00;-1.00;-1.00;100983;316;1003371;-31
2023/09/22 08:13:47;;;;;;;7.50;1.40;;;;;;;-128.00;-1.00;-1.00;101089;317;1002872;-30
2023/09/22 08:16:13;;;;;;;4.40;1.30;;;;;;;-128.00;-1.00;-1.00;101038;316;1003919;-34
2023/09/22 08:18:40;;;;;;;5.50;2.50;;;;;;;-128.00;-1.00;-1.00;101006;316;1002688;-30
2023/09/22 08:21:07;;;;;;;14.60;1.30;;;;;;;-128.00;-1.00;-1.00;100891;317;1003131;-33
2023/09/22 08:23:33;;;;;;;6.70;1.20;;;;;;;-128.00;-1.00;-1.00;100830;317;1003294;-35
2023/09/22 08:25:58;;;;;;;6.10;1.30;;;;;;;-128.00;-1.00;-1.00;100641;317;1003462;-38
2023/09/22 08:28:25;;;;;;;0.50;0.50;;;;;;;-128.00;-1.00;-1.00;100973;317;1002843;-32
2023/09/22 08:30:56;;;;;;;1.90;1.40;;;;;;;-128.00;-1.00;-1.00;101070;317;1005544;-33
2023/09/22 08:33:22;;;;;;;;;;;;;;;-128.00;-1.00;-1.00;101046;317;1004919;-35
2023/09/22 08:35:48;;;;;;;5.50;1.10;;;;;;;-128.00;-1.00;-1.00;100971;316;1003939;-35
2023/09/22 08:38:14;;;;;;;2.00;1.00;;;;;;;-128.00;-1.00;-1.00;101037;316;1002949;-31
2023/09/22 08:40:40;;;;;;;2.30;0.70;;;;;;;-128.00;-1.00;-1.00;101017;316;1003380;-35
2023/09/22 08:43:06;;;;;;;3.50;1.30;;;;;;;-128.00;-1.00;-1.00;100978;316;1003103;-31
2023/09/22 08:45:32;;;;;;;6.40;1.90;;;;;;;-128.00;-1.00;-1.00;100972;316;1003820;-31
2023/09/22 08:47:57;;;;;;;8.50;1.30;;;;;;;-128.00;-1.00;-1.00;100995;316;1003489;-31
2023/09/22 08:50:23;;;;;;;4.20;1.30;;;;;;;-128.00;-1.00;-1.00;101000;316;1002232;-33
2023/09/22 08:52:51;;;;;;;4.20;1.30;;;;;;;-128.00;-1.00;-1.00;101055;316;1002941;-31
2023/09/22 08:55:17;;;;;;;3.50;1.40;;;;;;;-128.00;-1.00;-1.00;101030;316;1002772;-31
2023/09/22 08:57:44;;;;;;;3.10;1.00;;;;;;;-128.00;-1.00;-1.00;101052;316;1003710;-31
2023/09/22 09:00:18;;;;;;;4.50;1.00;;;;;;;-128.00;-1.00;-1.00;101023;317;1003303;-40
2023/09/22 09:02:44;;;;;;;5.10;1.00;;;;;;;-128.00;-1.00;-1.00;101078;316;1002637;-36
2023/09/22 09:05:28;;;;;;;8.20;1.60;;;;;;;-128.00;-1.00;-1.00;101010;316;1002469;-34
2023/09/22 09:07:55;;;;;;;2.20;0.80;;;;;;;-128.00;-1.00;-1.00;101023;316;1004531;-30
2023/09/22 09:10:26;;;;;;;1.70;1.00;;;;;;;-128.00;-1.00;-1.00;100860;317;1003425;-31
2023/09/22 09:12:52;;;;;;;1.20;0.70;;;;;;;-128.00;-1.00;-1.00;100929;316;1003012;-31
2023/09/22 09:15:18;;;;;;;6.60;2.80;;;;;;;-128.00;-1.00;-1.00;101079;316;1003034;-37
2023/09/22 09:17:46;;;;;;;5.70;1.70;;;;;;;-128.00;-1.00;-1.00;100991;317;1003280;-33
2023/09/22 09:20:11;;;;;;;3.70;1.10;;;;;;;-128.00;-1.00;-1.00;100148;317;1004881;-35
2023/09/22 09:22:38;;;;;;;3.50;0.90;;;;;;;-128.00;-1.00;-1.00;100972;316;1002951;-34
2023/09/22 09:25:09;;;;;;;3.00;1.10;;;;;;;-128.00;-1.00;-1.00;101019;316;1004133;-31
2023/09/22 09:27:35;;;;;;;4.50;1.40;;;;;;;-128.00;-1.00;-1.00;100797;317;1003069;-33
2023/09/22 09:30:08;;;;;;;10.50;1.30;;;;;;;-128.00;-1.00;-1.00;101092;316;1003824;-31
2023/09/22 09:32:33;;;;;;;;;;;;;;;-128.00;-1.00;-1.00;100826;318;1003233;-31
2023/09/22 09:35:00;;;;;;;3.30;1.00;;;;;;;-128.00;-1.00;-1.00;101054;317;1002830;-33
2023/09/22 09:37:26;;;;;;;4.90;1.40;;;;;;;-128.00;-1.00;-1.00;101024;316;1002840;-31
2023/09/22 09:39:53;;;;;;;2.90;1.20;;;;;;;-128.00;-1.00;-1.00;100843;317;1003051;-35
2023/09/22 09:42:21;;;;;;;2.00;1.00;;;;;;;-128.00;-1.00;-1.00;100992;317;1003125;-35
2023/09/22 09:44:51;;;;;;;6.80;4.60;;;;;;;-128.00;-1.00;-1.00;101030;317;1005354;-31
2023/09/22 09:47:24;;;;;;;2.90;1.00;;;;;;;-128.00;-1.00;-1.00;100959;316;1003589;-31
2023/09/22 09:49:52;;;;;;;7.50;1.40;;;;;;;-128.00;-1.00;-1.00;100673;317;1003211;-39
2023/09/22 09:52:33;;;;;;;2.50;0.80;;;;;;;-128.00;-1.00;-1.00;101068;317;1003320;-37
2023/09/22 09:55:12;;;;;;;2.20;1.20;;;;;;;-128.00;-1.00;-1.00;100945;317;1003692;-33
2023/09/22 09:57:39;;;;;;;4.00;1.80;;;;;;;-128.00;-1.00;-1.00;101046;317;1003974;-37
2023/09/22 10:00:15;;;;;;;5.70;1.60;;;;;;;-128.00;-1.00;-1.00;100967;317;1003663;-34
2023/09/22 10:02:43;;;;;;;4.70;1.20;;;;;;;-128.00;-1.00;-1.00;100984;316;1003125;-35
2023/09/22 10:05:14;;;;;;;1.90;0.80;;;;;;;-128.00;-1.00;-1.00;100763;319;1003707;-30
2023/09/22 10:07:41;;;;;;;3.70;1.60;;;;;;;-128.00;-1.00;-1.00;100983;316;1003733;-36
2023/09/22 10:10:07;;;;;;;2.90;1.60;;;;;;;-128.00;-1.00;-1.00;100968;316;1003208;-30
2023/09/22 10:12:33;;;;;;;2.30;1.20;;;;;;;-128.00;-1.00;-1.00;100997;316;1003393;-31
2023/09/22 10:15:04;;;;;;;2.90;1.10;;;;;;;-128.00;-1.00;-1.00;101031;316;1003365;-31
2023/09/22 10:17:31;;;;;;;3.00;1.30;;;;;;;-128.00;-1.00;-1.00;101067;316;1003132;-33
2023/09/22 10:19:59;;;;;;;4.50;1.10;;;;;;;-128.00;-1.00;-1.00;100840;318;1003174;-33
2023/09/22 10:22:25;;;;;;;4.00;1.70;;;;;;;-128.00;-1.00;-1.00;100713;316;1003339;-32
2023/09/22 10:25:19;;;;;;;4.20;1.40;;;;;;;-128.00;-1.00;-1.00;100984;316;1003502;-37
2023/09/22 10:28:01;;;;;;;2.80;1.10;;;;;;;-128.00;-1.00;-1.00;101013;316;1003522;-32
2023/09/22 10:30:58;;;;;;;3.10;0.80;;;;;;;-128.00;-1.00;-1.00;101015;316;1003010;-35
2023/09/22 10:33:26;;;;;;;3.30;0.80;;;;;;;-128.00;-1.00;-1.00;100971;316;1004170;-33
2023/09/22 10:35:57;;;;;;;1.30;0.90;;;;;;;-128.00;-1.00;-1.00;101034;317;1002398;-31
2023/09/22 10:38:22;;;;;;;2.90;1.10;;;;;;;-128.00;-1.00;-1.00;100976;316;1002781;-31
2023/09/22 10:41:05;;;;;;;2.80;1.40;;;;;;;-128.00;-1.00;-1.00;100953;316;1003519;-35
2023/09/22 10:43:32;;;;;;;1.00;0.90;;;;;;;-128.00;-1.00;-1.00;100972;316;1003250;-37
2023/09/22 10:45:59;;;;;;;3.90;0.70;;;;;;;-128.00;-1.00;-1.00;101072;316;1003490;-32
2023/09/22 10:48:33;;;;;;;9.10;1.20;;;;;;;-128.00;-1.00;-1.00;100793;316;1002978;-34
2023/09/22 10:50:59;;;;;;;3.10;1.10;;;;;;;-128.00;-1.00;-1.00;101074;316;1003013;-39
2023/09/22 10:53:25;;;;;;;2.60;0.90;;;;;;;-128.00;-1.00;-1.00;100902;317;1003012;-38
2023/09/22 10:55:51;;;;;;;8.50;1.60;;;;;;;-128.00;-1.00;-1.00;101081;316;1003360;-36
2023/09/22 10:58:22;;;;;;;2.00;1.10;;;;;;;-128.00;-1.00;-1.00;101019;316;1004200;-33
2023/09/22 11:01:08;;;;;;;1.50;0.90;;;;;;;-128.00;-1.00;-1.00;101056;316;1003455;-35
2023/09/22 11:03:35;;;;;;;7.10;1.20;;;;;;;-128.00;-1.00;-1.00;101033;316;1003542;-29
2023/09/22 11:06:08;;;;;;;3.40;1.10;;;;;;;-128.00;-1.00;-1.00;100771;318;1004276;-33
2023/09/22 11:08:34;;;;;;;2.60;0.90;;;;;;;-128.00;-1.00;-1.00;101038;317;1004831;-31
2023/09/22 11:11:00;;;;;;;4.30;1.20;;;;;;;-128.00;-1.00;-1.00;100987;317;1003146;-30
2023/09/22 11:13:27;;;;;;;4.40;1.10;;;;;;;-128.00;-1.00;-1.00;100938;316;1003663;-30
2023/09/22 11:15:57;;;;;;;2.80;1.50;;;;;;;-128.00;-1.00;-1.00;100812;317;1002578;-31
2023/09/22 11:18:24;;;;;;;3.50;1.40;;;;;;;-128.00;-1.00;-1.00;101070;316;1003676;-36
2023/09/22 11:21:05;;;;;;;0.30;0.30;;;;;;;-128.00;-1.00;-1.00;101028;316;1002892;-37
2023/09/22 11:23:31;;;;;;;8.10;1.70;;;;;;;-128.00;-1.00;-1.00;101071;317;1003556;-37
2023/09/22 11:26:05;;;;;;;1.20;0.80;;;;;;;-128.00;-1.00;-1.00;100897;317;1004147;-32
2023/09/22 11:28:31;;;;;;;10.90;1.20;;;;;;;-128.00;-1.00;-1.00;101000;316;1003482;-38
2023/09/22 11:31:12;;;;;;;3.10;1.00;;;;;;;-128.00;-1.00;-1.00;101049;316;1003785;-31
2023/09/22 11:33:39;;;;;;;3.30;1.30;;;;;;;-128.00;-1.00;-1.00;101051;316;1004300;-31
2023/09/22 11:36:05;;;;;;;2.50;1.10;;;;;;;-128.00;-1.00;-1.00;100832;317;1003322;-31
2023/09/22 11:38:32;;;;;;;6.40;1.00;;;;;;;-128.00;-1.00;-1.00;101014;316;1003701;-38
2023/09/22 11:41:16;;;;;;;2.10;0.90;;;;;;;-128.00;-1.00;-1.00;101050;316;1003123;-29
2023/09/22 11:43:43;;;;;;;1.30;0.70;;;;;;;-128.00;-1.00;-1.00;100894;317;1003265;-30
2023/09/22 11:46:27;;;;;;;4.70;1.20;;;;;;;-128.00;-1.00;-1.00;100675;317;1003386;-35
2023/09/22 11:49:06;;;;;;;11.40;1.60;;;;;;;-128.00;-1.00;-1.00;101092;316;1004505;-34
2023/09/22 11:51:56;;;;;;;8.00;1.80;;;;;;;-128.00;-1.00;-1.00;100920;317;1002807;-34
2023/09/22 11:54:24;;;;;;;4.70;1.20;;;;;;;-128.00;-1.00;-1.00;100850;318;1005410;-31
2023/09/22 11:56:55;;;;;;;3.80;1.00;;;;;;;-128.00;-1.00;-1.00;101067;316;1002813;-31
2023/09/22 11:59:21;;;;;;;2.70;1.10;;;;;;;-128.00;-1.00;-1.00;100993;317;1002830;-35
2023/09/22 12:01:48;;;;;;;2.20;1.50;;;;;;;-128.00;-1.00;-1.00;100996;317;1003487;-38
2023/09/22 12:04:14;;;;;;;4.60;1.70;;;;;;;-128.00;-1.00;-1.00;101004;316;1003368;-30
2023/09/22 12:06:40;;;;;;;7.00;1.10;;;;;;;-128.00;-1.00;-1.00;101004;316;1003412;-35
2023/09/22 12:09:08;;;;;;;3.30;1.30;;;;;;;-128.00;-1.00;-1.00;100991;317;1002949;-37
2023/09/22 12:11:34;;;;;;;5.70;2.10;;;;;;;-128.00;-1.00;-1.00;101064;317;1003313;-35